Time;durP1;ratioP1;P1;durP2;ratioP2;P2;SDS_P1;SDS_P2;PMS_P1;PMS_P2;Temp;Humidity;BMP_temperature;BMP_pressure;BME280_temperature;BME280_humidity;BME280_pressure;Samples;Min_cycle;Max_cycle;Signal;HPM_P1;HPM_P2
2023/05/07 00:01:30;;;;;;;14.10;12.70;;;22.30;58.80;;;;;;4806131;55;21514;-35
2023/05/07 00:06:32;;;;;;;13.27;11.98;;;22.30;58.80;;;;;;4747594;55;21142;-34
2023/05/07 00:11:33;;;;;;;13.35;12.05;;;22.30;59.40;;;;;;4753240;55;21091;-35
2023/05/07 00:16:34;;;;;;;12.82;11.52;;;22.30;58.80;;;;;;4822631;55;21079;-35
2023/05/07 00:21:35;;;;;;;12.88;11.65;;;22.30;58.80;;;;;;4718602;55;20995;-36
2023/05/07 00:26:36;;;;;;;13.52;12.13;;;22.30;58.80;;;;;;4826770;55;21508;-35
2023/05/07 00:31:37;;;;;;;15.35;13.13;;;22.30;58.90;;;;;;4785089;55;21031;-35
2023/05/07 00:36:37;;;;;;;13.68;12.13;;;22.30;58.80;;;;;;4727806;55;21079;-35
2023/05/07 00:41:38;;;;;;;12.95;11.65;;;22.30;58.80;;;;;;4719010;55;21031;-34
2023/05/07 00:46:40;;;;;;;13.07;11.70;;;22.30;58.90;;;;;;4736090;55;21531;-35
2023/05/07 00:51:41;;;;;;;14.45;12.93;;;22.20;58.80;;;;;;4714906;59;21600;-34
2023/05/07 00:56:42;;;;;;;12.75;11.45;;;22.20;58.80;;;;;;4719378;55;21023;-34
2023/05/07 01:01:43;;;;;;;13.27;11.90;;;22.30;58.80;;;;;;4798722;55;21082;-34
2023/05/07 01:06:45;;;;;;;13.10;11.80;;;22.20;58.80;;;;;;4728077;55;21015;-36
2023/05/07 01:11:49;;;;;;;13.50;12.10;;;22.20;58.80;;;;;;4727397;55;21027;-34
2023/05/07 01:16:50;;;;;;;12.85;11.55;;;22.20;58.80;;;;;;4716334;59;21023;-36
2023/05/07 01:21:55;;;;;;;12.23;11.02;;;22.20;59.30;;;;;;4745148;55;21497;-35
2023/05/07 01:26:56;;;;;;;12.60;11.30;;;22.20;58.90;;;;;;4771062;55;21123;-30
2023/05/07 01:31:59;;;;;;;12.57;11.27;;;22.20;58.80;;;;;;4777051;55;21127;-30
2023/05/07 01:37:01;;;;;;;13.02;11.63;;;22.20;58.80;;;;;;4772830;55;21076;-34
2023/05/07 01:42:02;;;;;;;12.63;11.30;;;22.20;58.80;;;;;;4842255;55;21038;-32
2023/05/07 01:47:04;;;;;;;12.32;11.12;;;22.20;58.80;;;;;;4755056;55;21048;-31
2023/05/07 01:52:06;;;;;;;12.20;10.98;;;22.20;58.80;;;;;;4796945;55;21416;-34
2023/05/07 01:57:07;;;;;;;12.50;11.27;;;22.20;58.90;;;;;;4715736;59;21581;-36
2023/05/07 02:02:08;;;;;;;12.07;10.88;;;22.20;58.90;;;;;;4719540;55;21043;-37
2023/05/07 02:07:08;;;;;;;12.02;10.82;;;22.20;58.80;;;;;;4757951;55;21099;-35
2023/05/07 02:12:09;;;;;;;12.77;11.48;;;22.20;58.90;;;;;;4723488;55;21079;-37
2023/05/07 02:17:10;;;;;;;11.65;10.52;;;22.20;58.80;;;;;;4716032;55;21035;-34
2023/05/07 02:22:11;;;;;;;11.57;10.48;;;22.20;59.40;;;;;;4715577;56;21569;-31
2023/05/07 02:27:12;;;;;;;11.63;10.02;;;22.20;58.80;;;;;;4715824;56;21008;-34
2023/05/07 02:32:15;;;;;;;11.50;10.30;;;22.20;58.80;;;;;;4751999;55;21039;-31
2023/05/07 02:37:16;;;;;;;11.25;10.15;;;22.20;58.90;;;;;;4785349;55;21043;-34
2023/05/07 02:42:17;;;;;;;10.70;9.70;;;22.20;58.80;;;;;;4734461;55;21553;-35
2023/05/07 02:47:18;;;;;;;11.77;10.57;;;22.20;58.80;;;;;;4785487;55;21027;-37
2023/05/07 02:52:19;;;;;;;11.20;10.10;;;22.20;58.80;;;;;;4714604;56;21020;-35
2023/05/07 02:57:20;;;;;;;10.63;9.63;;;22.20;58.80;;;;;;4715983;55;21423;-29
2023/05/07 03:02:21;;;;;;;11.18;10.07;;;22.20;58.80;;;;;;4826844;55;21075;-35
2023/05/07 03:07:21;;;;;;;10.85;9.75;;;22.20;58.80;;;;;;4731844;55;21545;-30
2023/05/07 03:12:22;;;;;;;10.93;9.82;;;22.20;58.80;;;;;;4785603;55;21072;-32
2023/05/07 03:17:23;;;;;;;10.57;9.57;;;22.20;58.80;;;;;;4715648;59;21104;-31
2023/05/07 03:22:24;;;;;;;10.60;9.50;;;22.20;58.80;;;;;;4716014;56;21109;-33
2023/05/07 03:27:25;;;;;;;10.35;9.35;;;22.20;58.80;;;;;;4717483;55;21032;-34
2023/05/07 03:32:26;;;;;;;9.90;9.00;;;22.20;58.80;;;;;;4747295;55;21948;-33
2023/05/07 03:37:26;;;;;;;10.48;9.48;;;22.20;58.80;;;;;;4715693;59;21039;-31
2023/05/07 03:42:29;;;;;;;10.52;9.52;;;22.20;58.80;;;;;;4815332;55;21023;-34
2023/05/07 03:47:30;;;;;;;10.30;9.30;;;22.20;58.80;;;;;;4781983;55;21526;-34
2023/05/07 03:52:31;;;;;;;9.93;8.93;;;22.20;58.80;;;;;;4892819;55;21155;-33
2023/05/07 03:57:31;;;;;;;10.07;9.07;;;22.20;58.70;;;;;;4760470;55;21024;-33
2023/05/07 04:02:33;;;;;;;9.95;9.05;;;22.20;58.80;;;;;;4737203;55;21027;-32
2023/05/07 04:07:34;;;;;;;9.88;8.88;;;22.20;58.80;;;;;;4811559;55;21003;-33
2023/05/07 04:12:35;;;;;;;9.00;8.20;;;22.20;58.70;;;;;;4714830;59;21498;-30
2023/05/07 04:17:36;;;;;;;9.82;8.93;;;22.20;58.70;;;;;;4924215;55;21034;-33
2023/05/07 04:22:37;;;;;;;8.98;8.07;;;22.20;58.70;;;;;;4738342;55;21553;-32
2023/05/07 04:27:38;;;;;;;9.85;8.88;;;22.20;58.70;;;;;;4743325;55;21118;-32
2023/05/07 04:32:39;;;;;;;9.73;8.75;;;22.20;58.80;;;;;;4738321;55;21537;-33
2023/05/07 04:37:39;;;;;;;9.63;8.65;;;22.20;58.70;;;;;;4715897;59;21014;-31
2023/05/07 04:42:42;;;;;;;10.20;9.10;;;22.20;58.70;;;;;;4723245;55;21007;-32
2023/05/07 04:47:42;;;;;;;9.85;8.95;;;22.20;58.70;;;;;;4715974;59;21638;-32
2023/05/07 04:52:43;;;;;;;9.00;8.15;;;22.20;58.70;;;;;;4760114;55;21072;-34
2023/05/07 04:57:45;;;;;;;9.68;8.75;;;22.20;58.80;;;;;;4734501;55;21023;-32
2023/05/07 05:02:46;;;;;;;9.70;8.70;;;22.20;58.80;;;;;;4776615;55;21489;-34
2023/05/07 05:07:47;;;;;;;9.52;8.63;;;22.20;58.70;;;;;;4751684;55;21019;-34
2023/05/07 05:12:48;;;;;;;10.50;9.43;;;22.20;58.60;;;;;;4762366;55;21059;-31
2023/05/07 05:17:49;;;;;;;9.45;8.52;;;22.20;58.70;;;;;;4716215;59;21024;-35
2023/05/07 05:22:49;;;;;;;9.40;8.52;;;22.20;58.70;;;;;;4719030;55;21115;-33
2023/05/07 05:27:50;;;;;;;8.73;7.93;;;22.20;58.60;;;;;;4733733;55;21024;-30
2023/05/07 05:32:51;;;;;;;9.30;8.40;;;22.20;58.60;;;;;;4721424;55;21043;-30
2023/05/07 05:37:52;;;;;;;9.32;8.20;;;22.20;58.60;;;;;;4761699;55;21075;-28
2023/05/07 05:42:55;;;;;;;9.40;8.50;;;22.20;58.60;;;;;;4750444;55;21090;-33
2023/05/07 05:47:57;;;;;;;10.00;9.05;;;22.20;58.50;;;;;;4785351;55;21020;-35
2023/05/07 05:52:58;;;;;;;10.35;9.35;;;22.20;58.60;;;;;;4760452;55;21577;-35
2023/05/07 05:58:00;;;;;;;8.95;8.15;;;22.20;58.60;;;;;;4734748;55;21031;-34
2023/05/07 06:03:01;;;;;;;9.45;8.55;;;22.20;58.50;;;;;;4715629;59;22451;-33
2023/05/07 06:08:02;;;;;;;9.30;8.40;;;22.20;58.40;;;;;;4787535;55;21860;-36
2023/05/07 06:13:03;;;;;;;9.25;8.45;;;22.20;58.50;;;;;;4725984;55;21483;-36
2023/05/07 06:18:04;;;;;;;10.25;9.25;;;22.20;58.50;;;;;;4737001;55;21399;-37
2023/05/07 06:23:05;;;;;;;9.35;8.50;;;22.20;58.50;;;;;;4849206;55;21479;-37
2023/05/07 06:28:08;;;;;;;9.85;8.85;;;22.20;58.40;;;;;;4715793;59;21051;-37
2023/05/07 06:33:09;;;;;;;9.35;8.45;;;22.20;58.40;;;;;;4715897;59;21537;-34
2023/05/07 06:38:10;;;;;;;9.82;8.90;;;22.20;58.40;;;;;;4792621;55;21431;-34
2023/05/07 06:43:11;;;;;;;9.32;8.43;;;22.20;58.40;;;;;;4780926;55;21513;-36
2023/05/07 06:48:12;;;;;;;10.30;9.20;;;22.20;58.40;;;;;;4765428;55;21028;-31
2023/05/07 06:53:13;;;;;;;9.80;8.80;;;22.20;58.40;;;;;;4715784;56;21023;-36
2023/05/07 06:58:13;;;;;;;10.10;9.10;;;22.20;58.40;;;;;;4715650;59;21158;-33
2023/05/07 07:03:15;;;;;;;9.35;8.43;;;22.20;58.30;;;;;;4750438;55;21601;-37
2023/05/07 07:08:17;;;;;;;9.77;8.77;;;22.20;58.30;;;;;;4715325;56;21545;-36
2023/05/07 07:13:19;;;;;;;10.25;9.25;;;22.20;58.30;;;;;;4716039;59;21462;-34
2023/05/07 07:18:20;;;;;;;9.98;8.98;;;22.20;58.30;;;;;;4715257;59;21569;-33
2023/05/07 07:23:21;;;;;;;10.93;9.82;;;22.20;58.30;;;;;;4715313;59;21518;-36
2023/05/07 07:28:22;;;;;;;9.63;8.63;;;22.20;58.30;;;;;;4715270;59;21023;-36
2023/05/07 07:33:23;;;;;;;9.25;8.38;;;22.20;58.30;;;;;;4767186;55;21633;-35
2023/05/07 07:38:23;;;;;;;9.60;8.70;;;22.20;58.40;;;;;;4744626;55;21003;-35
2023/05/07 07:43:24;;;;;;;9.98;8.93;;;22.20;58.30;;;;;;4721325;55;21149;-35
2023/05/07 07:48:25;;;;;;;9.13;8.32;;;22.20;58.30;;;;;;4716128;59;21086;-34
2023/05/07 07:53:26;;;;;;;10.05;9.05;;;22.20;58.30;;;;;;4717388;55;21032;-34
2023/05/07 07:58:27;;;;;;;9.98;8.98;;;22.20;58.30;;;;;;4739118;55;21517;-36
2023/05/07 08:03:28;;;;;;;9.30;8.40;;;22.20;58.40;;;;;;4744527;55;21059;-34
2023/05/07 08:08:28;;;;;;;10.27;9.27;;;22.20;58.30;;;;;;4721688;55;21079;-34
2023/05/07 08:13:29;;;;;;;9.77;8.68;;;22.20;58.40;;;;;;4729847;55;21043;-37
2023/05/07 08:18:30;;;;;;;10.25;9.25;;;22.20;58.30;;;;;;4743496;55;21393;-33
2023/05/07 08:23:31;;;;;;;10.48;9.35;;;22.20;58.40;;;;;;4725064;55;21384;-35
2023/05/07 08:28:32;;;;;;;9.98;9.05;;;22.20;58.40;;;;;;4732963;55;21660;-36
2023/05/07 08:33:33;;;;;;;10.25;9.23;;;22.20;58.40;;;;;;4752223;55;21494;-35
2023/05/07 08:38:35;;;;;;;9.90;8.90;;;22.20;58.40;;;;;;4774081;55;21011;-33
2023/05/07 08:43:37;;;;;;;9.98;9.00;;;22.20;58.40;;;;;;4796061;55;21090;-35
2023/05/07 08:48:39;;;;;;;10.18;9.18;;;22.20;58.40;;;;;;4715304;56;21120;-35
2023/05/07 08:53:43;;;;;;;9.23;8.32;;;22.20;58.40;;;;;;4754958;55;21497;-33
2023/05/07 08:58:44;;;;;;;9.80;8.80;;;22.20;58.50;;;;;;4749060;55;21037;-37
2023/05/07 09:03:46;;;;;;;9.85;8.85;;;22.20;58.40;;;;;;4724148;55;21007;-35
2023/05/07 09:08:54;;;;;;;9.35;8.45;;;22.30;58.50;;;;;;4715594;59;21501;-35
2023/05/07 09:13:57;;;;;;;9.18;8.30;;;22.20;58.40;;;;;;4715592;59;21683;-35
2023/05/07 09:19:00;;;;;;;10.27;9.27;;;22.30;58.60;;;;;;4772279;55;21497;-35
2023/05/07 09:24:01;;;;;;;10.13;9.13;;;22.30;58.50;;;;;;4786926;55;21585;-34
2023/05/07 09:29:02;;;;;;;10.00;9.00;;;22.30;58.50;;;;;;4715248;59;21079;-36
2023/05/07 09:34:05;;;;;;;9.48;8.57;;;22.30;58.50;;;;;;4747702;55;21023;-35
2023/05/07 09:39:06;;;;;;;9.20;8.35;;;22.30;58.60;;;;;;4733384;55;21079;-36
2023/05/07 09:44:06;;;;;;;9.77;8.88;;;22.30;58.60;;;;;;4715726;56;21505;-31
2023/05/07 09:49:13;;;;;;;9.15;8.25;;;22.30;58.60;;;;;;4728449;55;21097;-33
2023/05/07 09:54:15;;;;;;;9.80;8.80;;;22.30;58.60;;;;;;4795657;55;21513;-36
2023/05/07 09:59:16;;;;;;;10.43;9.43;;;22.30;58.60;;;;;;4770220;55;21079;-35
2023/05/07 10:04:18;;;;;;;10.18;9.18;;;22.30;58.60;;;;;;4838596;55;21131;-36
2023/05/07 10:09:20;;;;;;;9.77;8.82;;;22.30;58.60;;;;;;4729603;55;21074;-36
2023/05/07 10:14:21;;;;;;;10.25;9.25;;;22.30;58.60;;;;;;4715625;59;21051;-35
2023/05/07 10:19:23;;;;;;;10.10;9.07;;;22.30;58.60;;;;;;4731188;55;21075;-37
2023/05/07 10:24:47;;;;;;;10.57;9.57;;;22.30;58.60;;;;;;4776955;55;21999;-37
2023/05/07 10:30:15;;;;;;;10.35;9.35;;;22.30;58.60;;;;;;4731983;55;21076;-34
2023/05/07 10:35:21;;;;;;;9.18;8.20;;;22.30;58.60;;;;;;4787111;55;21063;-35
2023/05/07 10:40:22;;;;;;;9.75;8.80;;;22.30;58.60;;;;;;4795035;55;21079;-33
2023/05/07 10:45:24;;;;;;;10.77;9.73;;;22.30;58.60;;;;;;4800079;55;20995;-35
2023/05/07 10:50:25;;;;;;;10.40;9.40;;;22.30;58.70;;;;;;4719690;55;21139;-34
2023/05/07 10:55:26;;;;;;;9.88;8.88;;;22.30;58.60;;;;;;4752204;55;21067;-34
2023/05/07 11:01:14;;;;;;;10.88;9.77;;;22.30;58.70;;;;;;4769667;55;21475;-33
2023/05/07 11:06:16;;;;;;;10.45;9.40;;;22.30;58.70;;;;;;4719849;55;21451;-36
2023/05/07 11:11:17;;;;;;;10.55;9.55;;;22.30;58.60;;;;;;4749924;55;21052;-37
2023/05/07 11:16:22;;;;;;;11.40;10.30;;;22.30;58.60;;;;;;4715377;59;21052;-37
2023/05/07 11:21:40;;;;;;;11.15;10.05;;;22.30;58.60;;;;;;4786781;55;21083;-33
2023/05/07 11:26:48;;;;;;;10.70;9.70;;;22.30;58.70;;;;;;4726787;55;21102;-37
2023/05/07 11:31:54;;;;;;;11.93;10.73;;;22.30;58.60;;;;;;4715073;59;21099;-35
2023/05/07 11:36:55;;;;;;;11.88;10.68;;;22.30;58.70;;;;;;4715850;59;21514;-37
2023/05/07 11:41:56;;;;;;;11.10;10.00;;;22.30;58.60;;;;;;4732481;55;21609;-36
2023/05/07 11:46:57;;;;;;;12.15;10.85;;;22.30;58.60;;;;;;4717839;55;21360;-35
2023/05/07 11:51:58;;;;;;;12.15;10.85;;;22.30;58.60;;;;;;4739804;55;21124;-37
2023/05/07 11:56:59;;;;;;;11.95;10.75;;;22.30;58.60;;;;;;4735675;55;21008;-35
2023/05/07 12:02:00;;;;;;;11.90;10.70;;;22.30;58.60;;;;;;4715980;59;21504;-34
2023/05/07 12:07:01;;;;;;;12.13;10.93;;;22.30;58.60;;;;;;4715607;59;21387;-34
2023/05/07 12:12:05;;;;;;;11.82;10.63;;;22.30;58.50;;;;;;4751309;55;21060;-37
2023/05/07 12:17:07;;;;;;;12.68;11.45;;;22.30;58.60;;;;;;4819515;55;20991;-35
2023/05/07 12:22:09;;;;;;;12.32;11.07;;;22.30;58.50;;;;;;4719074;55;21030;-36
2023/05/07 12:27:10;;;;;;;13.05;11.65;;;22.30;58.50;;;;;;4771157;55;21083;-31
2023/05/07 12:32:17;;;;;;;12.85;11.63;;;22.30;58.50;;;;;;4714547;59;21119;-36
2023/05/07 12:37:22;;;;;;;;;;;22.30;58.50;;;;;;4779516;55;21054;-36
2023/05/07 12:42:25;;;;;;;13.98;12.57;;;22.30;58.60;;;;;;4721739;55;20132;-37
2023/05/07 12:47:27;;;;;;;13.15;11.85;;;22.40;58.50;;;;;;4746463;55;21546;-33
2023/05/07 12:52:28;;;;;;;13.35;11.95;;;22.30;58.50;;;;;;4714595;59;21097;-35
2023/05/07 12:57:29;;;;;;;13.55;12.25;;;22.40;58.50;;;;;;4742160;55;21003;-35
2023/05/07 13:02:34;;;;;;;13.68;12.27;;;22.40;58.50;;;;;;4749294;55;21531;-35
2023/05/07 13:07:36;;;;;;;13.35;11.98;;;22.40;58.50;;;;;;4778613;55;20988;-34
2023/05/07 13:12:37;;;;;;;14.65;13.15;;;22.40;58.50;;;;;;4876956;55;21095;-33
2023/05/07 13:17:38;;;;;;;14.02;12.63;;;22.40;58.40;;;;;;4737801;55;21551;-34
2023/05/07 13:22:40;;;;;;;14.52;13.13;;;22.40;58.50;;;;;;4718653;55;21047;-35
2023/05/07 13:27:43;;;;;;;14.23;12.82;;;22.30;58.40;;;;;;4755444;55;21502;-34
2023/05/07 13:32:45;;;;;;;14.73;13.23;;;22.40;58.50;;;;;;4714654;59;21051;-35
2023/05/07 13:37:48;;;;;;;15.00;13.50;;;22.40;58.40;;;;;;4729148;55;21550;-33
2023/05/07 13:42:50;;;;;;;13.82;12.43;;;22.40;58.40;;;;;;4786099;55;21533;-35
2023/05/07 13:47:51;;;;;;;15.43;13.82;;;22.40;58.40;;;;;;4826175;55;21023;-35
2023/05/07 13:52:52;;;;;;;15.20;13.60;;;22.40;58.40;;;;;;4717337;55;21043;-36
2023/05/07 13:57:58;;;;;;;15.02;13.52;;;22.40;58.40;;;;;;4714883;59;21521;-36
2023/05/07 14:02:59;;;;;;;14.87;13.38;;;22.40;58.40;;;;;;4735225;55;21115;-35
2023/05/07 14:08:00;;;;;;;15.43;13.82;;;22.40;58.40;;;;;;4819371;55;21523;-30
2023/05/07 14:13:00;;;;;;;15.40;13.80;;;22.40;58.30;;;;;;4748758;55;21024;-36
2023/05/07 14:18:05;;;;;;;15.45;13.88;;;22.40;58.30;;;;;;4715666;59;21063;-33
2023/05/07 14:23:06;;;;;;;15.82;14.20;;;22.40;58.30;;;;;;4715567;59;21076;-36
2023/05/07 14:28:07;;;;;;;15.90;14.30;;;22.40;58.30;;;;;;4798961;55;21621;-32
2023/05/07 14:33:08;;;;;;;16.60;14.90;;;22.40;58.30;;;;;;4719842;55;21155;-37
2023/05/07 14:38:08;;;;;;;16.98;15.25;;;22.40;58.30;;;;;;4728410;55;21514;-36
2023/05/07 14:43:09;;;;;;;16.17;14.48;;;22.40;58.30;;;;;;4741576;55;21039;-37
2023/05/07 14:48:14;;;;;;;15.60;14.05;;;22.40;58.30;;;;;;4720261;55;21923;-36
2023/05/07 14:53:15;;;;;;;16.65;14.85;;;22.40;58.30;;;;;;4714659;59;21537;-34
2023/05/07 14:58:19;;;;;;;15.32;13.82;;;22.40;58.20;;;;;;4735177;55;21031;-36
2023/05/07 15:03:21;;;;;;;15.40;13.80;;;22.40;58.20;;;;;;4743413;55;21043;-36
2023/05/07 15:08:22;;;;;;;16.73;15.02;;;22.40;58.20;;;;;;4715405;56;21584;-35
2023/05/07 15:13:23;;;;;;;16.27;14.57;;;22.40;58.20;;;;;;4759515;55;21498;-37
2023/05/07 15:18:24;;;;;;;16.83;14.93;;;22.40;58.20;;;;;;4751805;55;21059;-35
2023/05/07 15:23:26;;;;;;;16.98;15.27;;;22.40;58.20;;;;;;4850801;55;21027;-35
2023/05/07 15:28:27;;;;;;;16.42;14.73;;;22.40;58.20;;;;;;4745994;55;21540;-37
2023/05/07 15:33:28;;;;;;;16.75;15.05;;;22.40;58.20;;;;;;4726390;55;21628;-36
2023/05/07 15:38:29;;;;;;;16.20;14.60;;;22.40;58.20;;;;;;4754742;55;21395;-37
2023/05/07 15:43:30;;;;;;;16.50;14.80;;;22.40;58.20;;;;;;4734578;55;22035;-34
2023/05/07 15:48:31;;;;;;;15.85;14.25;;;22.40;58.20;;;;;;4715369;59;21019;-36
2023/05/07 15:53:33;;;;;;;16.58;14.87;;;22.40;58.20;;;;;;4719184;55;21424;-35
2023/05/07 15:58:35;;;;;;;16.25;14.65;;;22.40;58.30;;;;;;4734386;55;21463;-35
2023/05/07 16:03:37;;;;;;;16.65;15.02;;;22.40;58.20;;;;;;4771466;55;21601;-38
2023/05/07 16:08:39;;;;;;;16.75;14.98;;;22.40;58.20;;;;;;4715563;59;21517;-37
2023/05/07 16:13:40;;;;;;;17.10;15.40;;;22.40;58.20;;;;;;4715913;55;21553;-37
2023/05/07 16:18:40;;;;;;;16.75;15.15;;;22.40;58.10;;;;;;4739485;55;20996;-37
2023/05/07 16:23:41;;;;;;;15.75;14.15;;;22.40;58.20;;;;;;4748607;55;21645;-34
2023/05/07 16:28:42;;;;;;;16.17;14.38;;;22.40;58.10;;;;;;4754483;55;21046;-36
2023/05/07 16:33:44;;;;;;;16.27;14.68;;;22.40;58.10;;;;;;4715722;59;21541;-36
2023/05/07 16:38:45;;;;;;;16.48;14.87;;;22.40;58.10;;;;;;4748361;55;21103;-35
2023/05/07 16:43:46;;;;;;;15.90;14.30;;;22.40;58.20;;;;;;4716084;55;21079;-37
2023/05/07 16:48:47;;;;;;;15.43;13.93;;;22.40;58.20;;;;;;4715627;59;21086;-35
2023/05/07 16:53:48;;;;;;;16.58;14.98;;;22.40;58.20;;;;;;4731151;55;21525;-36
2023/05/07 16:58:49;;;;;;;16.12;14.52;;;22.40;58.20;;;;;;4715489;59;20999;-36
2023/05/07 17:03:50;;;;;;;17.80;16.00;;;22.40;58.10;;;;;;4715944;56;21593;-33
2023/05/07 17:08:51;;;;;;;16.20;14.60;;;22.40;58.20;;;;;;4762959;55;21016;-36
2023/05/07 17:13:51;;;;;;;15.95;14.35;;;22.40;58.10;;;;;;4716248;55;21490;-35
2023/05/07 17:18:52;;;;;;;16.83;15.15;;;22.40;58.20;;;;;;4715377;56;21076;-36
2023/05/07 17:23:53;;;;;;;16.23;14.60;;;22.40;58.20;;;;;;4715807;59;21558;-35
2023/05/07 17:28:54;;;;;;;16.67;14.98;;;22.40;58.20;;;;;;4763544;55;21145;-32
2023/05/07 17:33:57;;;;;;;16.62;15.02;;;22.40;58.20;;;;;;4717257;55;21043;-29
2023/05/07 17:38:58;;;;;;;15.82;14.23;;;22.50;58.20;;;;;;4727150;55;21620;-35
2023/05/07 17:43:59;;;;;;;16.35;14.65;;;22.50;58.30;;;;;;4789752;55;21043;-37
2023/05/07 17:49:00;;;;;;;16.37;14.77;;;22.40;58.20;;;;;;4715577;59;21011;-33
2023/05/07 17:54:01;;;;;;;16.23;14.63;;;22.50;58.30;;;;;;4787072;55;21011;-36
2023/05/07 17:59:01;;;;;;;16.33;14.73;;;22.40;58.20;;;;;;4805892;55;21000;-35
2023/05/07 18:04:02;;;;;;;16.67;14.98;;;22.40;58.20;;;;;;4738120;55;21084;-31
2023/05/07 18:09:03;;;;;;;16.40;14.80;;;22.40;58.20;;;;;;4716106;59;21040;-44
2023/05/07 18:14:04;;;;;;;16.67;15.00;;;22.40;58.80;;;;;;4795232;55;21019;-35
2023/05/07 18:19:05;;;;;;;16.42;14.80;;;22.50;58.20;;;;;;4773442;55;21107;-30
2023/05/07 18:24:07;;;;;;;15.63;14.07;;;22.40;58.20;;;;;;4729573;55;21051;-36
2023/05/07 18:29:08;;;;;;;15.88;14.25;;;22.50;58.30;;;;;;4753305;55;21344;-36
2023/05/07 18:34:09;;;;;;;16.25;14.55;;;22.50;58.30;;;;;;4715605;59;21023;-32
2023/05/07 18:39:10;;;;;;;15.88;14.27;;;22.50;58.40;;;;;;4740493;55;21548;-36
2023/05/07 18:44:10;;;;;;;15.50;14.00;;;22.50;58.40;;;;;;4715441;59;21019;-35
2023/05/07 18:49:11;;;;;;;15.73;14.20;;;22.50;58.30;;;;;;4730094;55;21554;-35
2023/05/07 18:54:12;;;;;;;16.30;14.68;;;22.40;58.40;;;;;;4738231;55;21008;-35
2023/05/07 18:59:13;;;;;;;15.50;14.00;;;22.40;58.30;;;;;;4780009;55;21043;-36
2023/05/07 19:04:17;;;;;;;14.95;13.55;;;22.50;58.40;;;;;;4715919;55;21042;-36
2023/05/07 19:09:17;;;;;;;15.82;14.32;;;22.50;58.40;;;;;;4750067;55;21015;-36
2023/05/07 19:14:18;;;;;;;16.20;14.57;;;22.50;58.40;;;;;;4726513;55;21015;-35
2023/05/07 19:19:19;;;;;;;14.80;13.40;;;22.50;58.40;;;;;;4728113;55;21481;-34
2023/05/07 19:24:20;;;;;;;15.50;13.98;;;22.40;58.40;;;;;;4742135;55;21404;-37
2023/05/07 19:29:21;;;;;;;15.48;13.90;;;22.50;58.40;;;;;;4746603;55;21601;-36
2023/05/07 19:34:22;;;;;;;15.93;14.43;;;22.50;58.40;;;;;;4795018;55;21074;-36
2023/05/07 19:39:22;;;;;;;15.20;13.70;;;22.50;58.50;;;;;;4805306;55;21537;-37
2023/05/07 19:44:23;;;;;;;15.10;13.60;;;22.50;58.50;;;;;;4749916;55;21087;-30
2023/05/07 19:49:24;;;;;;;15.32;13.82;;;22.50;58.50;;;;;;4729836;55;21478;-35
2023/05/07 19:54:25;;;;;;;14.60;13.18;;;22.50;58.50;;;;;;4782519;55;21076;-34
2023/05/07 19:59:26;;;;;;;14.65;13.15;;;22.50;58.50;;;;;;4766805;55;21485;-36
2023/05/07 20:04:31;;;;;;;16.40;14.75;;;22.50;58.50;;;;;;4780491;55;21087;-33
2023/05/07 20:09:32;;;;;;;15.07;13.60;;;22.40;58.80;;;;;;4737961;55;21510;-37
2023/05/07 20:14:35;;;;;;;15.82;14.32;;;22.50;58.50;;;;;;4751341;55;21577;-34
2023/05/07 20:19:35;;;;;;;14.73;13.32;;;22.50;58.50;;;;;;4716058;59;21553;-35
2023/05/07 20:24:40;;;;;;;16.17;14.57;;;22.40;58.60;;;;;;4723576;55;21096;-34
2023/05/07 20:29:40;;;;;;;15.25;13.75;;;22.50;58.60;;;;;;4716419;55;21691;-36
2023/05/07 20:34:43;;;;;;;16.00;14.40;;;22.40;58.50;;;;;;4725544;55;21016;-31
2023/05/07 20:39:45;;;;;;;14.38;12.98;;;22.50;58.60;;;;;;4791705;55;21023;-31
2023/05/07 20:44:46;;;;;;;15.05;13.50;;;22.40;58.50;;;;;;4812564;55;21533;-35
2023/05/07 20:49:51;;;;;;;14.80;13.30;;;22.40;58.50;;;;;;4753081;55;21087;-35
2023/05/07 20:54:52;;;;;;;14.87;13.30;;;22.50;58.60;;;;;;4722507;55;21573;-34
2023/05/07 20:59:53;;;;;;;14.43;13.02;;;22.50;58.60;;;;;;4784492;55;21056;-35
2023/05/07 21:04:53;;;;;;;14.50;13.10;;;22.40;58.60;;;;;;4940302;55;21076;-35
2023/05/07 21:09:55;;;;;;;14.93;13.43;;;22.50;58.60;;;;;;4860583;55;21373;-36
2023/05/07 21:14:56;;;;;;;14.98;13.45;;;22.50;58.60;;;;;;4715917;59;21490;-37
2023/05/07 21:19:58;;;;;;;14.70;13.10;;;22.50;58.60;;;;;;4784907;55;21620;-35
2023/05/07 21:25:00;;;;;;;14.70;13.20;;;22.50;58.70;;;;;;4741481;55;21590;-35
2023/05/07 21:30:02;;;;;;;14.23;12.85;;;22.40;58.60;;;;;;4715710;59;21040;-36
2023/05/07 21:35:05;;;;;;;14.18;12.77;;;22.50;58.70;;;;;;4860435;55;21569;-34
2023/05/07 21:40:07;;;;;;;13.70;12.30;;;22.50;59.30;;;;;;4784184;55;21012;-36
2023/05/07 21:45:09;;;;;;;13.27;11.88;;;22.50;58.70;;;;;;4747983;55;21461;-34
2023/05/07 21:50:11;;;;;;;13.32;12.00;;;22.50;58.70;;;;;;4784666;55;20988;-34
2023/05/07 21:55:12;;;;;;;14.25;12.77;;;22.50;58.80;;;;;;4758709;55;21518;-36
2023/05/07 22:00:15;;;;;;;14.00;12.57;;;22.50;58.80;;;;;;4736267;55;21066;-31
2023/05/07 22:05:16;;;;;;;12.93;11.73;;;22.50;58.80;;;;;;4806821;55;21731;-35
2023/05/07 22:10:21;;;;;;;14.80;13.20;;;22.40;58.70;;;;;;4851497;55;21023;-37
2023/05/07 22:15:22;;;;;;;13.95;12.55;;;22.40;58.70;;;;;;4834601;55;22212;-31
2023/05/07 22:20:23;;;;;;;12.68;11.40;;;22.50;58.80;;;;;;4789068;55;20999;-33
2023/05/07 22:25:25;;;;;;;13.32;12.02;;;22.50;58.80;;;;;;4715100;59;21067;-33
2023/05/07 22:30:27;;;;;;;13.65;12.25;;;22.50;58.80;;;;;;4758341;55;21494;-35
2023/05/07 22:35:27;;;;;;;12.80;11.57;;;22.50;58.80;;;;;;4787839;55;20999;-33
2023/05/07 22:40:28;;;;;;;13.68;12.27;;;22.40;58.80;;;;;;4716000;59;21612;-32
2023/05/07 22:45:29;;;;;;;13.93;12.52;;;22.50;58.90;;;;;;4811624;55;21530;-33
2023/05/07 22:50:30;;;;;;;13.73;12.43;;;22.50;58.90;;;;;;4798380;55;21084;-36
2023/05/07 22:55:31;;;;;;;12.40;11.20;;;22.40;58.80;;;;;;4737666;55;21023;-34
2023/05/07 23:00:32;;;;;;;13.23;11.93;;;22.50;59.00;;;;;;4753087;55;21012;-32
2023/05/07 23:05:33;;;;;;;13.00;11.70;;;22.50;58.90;;;;;;4749536;55;21095;-33
2023/05/07 23:10:34;;;;;;;12.50;11.30;;;22.50;58.90;;;;;;4790602;55;21134;-34
2023/05/07 23:15:35;;;;;;;12.45;11.15;;;22.50;58.90;;;;;;4737802;55;21068;-34
2023/05/07 23:20:36;;;;;;;12.77;11.48;;;22.50;59.00;;;;;;4715895;59;21027;-31
2023/05/07 23:25:38;;;;;;;12.52;11.32;;;22.50;59.00;;;;;;4760626;55;21043;-33
2023/05/07 23:30:39;;;;;;;13.10;11.80;;;22.50;59.00;;;;;;4763647;55;21561;-34
2023/05/07 23:35:40;;;;;;;12.15;10.95;;;22.50;59.00;;;;;;4761604;55;21555;-36
2023/05/07 23:40:41;;;;;;;12.90;11.60;;;22.50;59.00;;;;;;4737475;55;21026;-36
2023/05/07 23:45:43;;;;;;;13.18;11.88;;;22.50;59.10;;;;;;4799626;55;21008;-35
2023/05/07 23:50:47;;;;;;;11.85;10.70;;;22.50;59.00;;;;;;4735070;55;21540;-32
2023/05/07 23:55:48;;;;;;;11.77;10.68;;;22.50;59.10;;;;;;4776321;55;21075;-31
